createdAt,value
2023-02-08T05:13:56.990Z,25.08
2023-02-08T05:15:08.309Z,38.47
2023-02-08T05:16:11.588Z,42.38
2023-02-08T05:17:14.674Z,45.92
2023-02-08T05:18:17.942Z,43.60
2023-02-08T05:19:26.433Z,37.65
2023-02-08T05:20:34.682Z,28.83
2023-02-08T05:21:40.155Z,31.02
2023-02-08T05:22:43.517Z,31.02
2023-02-08T05:23:47.451Z,23.95
2023-02-08T05:24:53.872Z,24.73
2023-02-08T05:25:56.798Z,29.30
2023-02-08T05:26:59.536Z,23.25
2023-02-08T05:28:02.407Z,19.90
2023-02-08T05:29:05.492Z,19.92
2023-02-08T05:30:11.190Z,19.45
2023-02-08T05:31:23.312Z,19.63
2023-02-08T05:32:28.347Z,22.05
2023-02-08T05:40:07.866Z,17.95
2023-02-08T05:41:12.420Z,17.40
2023-02-08T05:42:16.666Z,21.08
2023-02-08T05:43:24.761Z,21.25
2023-02-08T05:44:35.052Z,22.77
2023-02-08T05:45:46.684Z,21.17
2023-02-08T05:46:54.139Z,20.17
2023-02-08T05:47:57.288Z,20.17
2023-02-08T05:49:05.873Z,20.27
2023-02-08T05:50:09.423Z,22.13
2023-02-08T05:51:21.508Z,20.13
2023-02-08T05:52:24.607Z,22.48
2023-02-08T05:53:32.979Z,22.02
2023-02-08T05:54:36.334Z,19.48
2023-02-08T05:55:39.071Z,21.67
2023-02-08T05:56:49.467Z,21.98
2023-02-08T05:57:55.412Z,22.60
2023-02-08T05:59:01.692Z,22.55
2023-02-08T06:00:16.065Z,19.92
2023-02-08T06:01:23.966Z,23.67
2023-02-08T06:02:28.648Z,21.42
2023-02-08T06:03:35.253Z,20.40
2023-02-08T06:04:39.373Z,22.92
2023-02-08T06:05:42.701Z,19.58
2023-02-08T06:06:46.644Z,20.27
2023-02-08T06:07:57.183Z,23.55
2023-02-08T06:09:01.392Z,21.10
2023-02-08T06:10:05.210Z,22.25
2023-02-08T06:11:08.638Z,26.55
2023-02-08T06:12:15.776Z,25.05
2023-02-08T06:13:27.357Z,22.85
2023-02-08T06:14:39.054Z,22.83
2023-02-08T06:15:44.102Z,21.77
2023-02-08T06:16:50.322Z,22.00
2023-02-08T06:17:55.642Z,24.63
2023-02-08T06:19:03.779Z,25.50
2023-02-08T06:20:10.707Z,23.45
2023-02-08T06:21:24.151Z,23.52
2023-02-08T06:22:28.749Z,23.67
2023-02-08T06:23:35.770Z,25.20
2023-02-08T06:24:41.665Z,24.45
2023-02-08T06:25:44.817Z,22.85
2023-02-08T06:26:50.814Z,25.00
2023-02-08T06:27:57.559Z,25.48
2023-02-08T06:29:01.624Z,25.33
2023-02-08T06:30:07.012Z,25.67
2023-02-08T06:31:10.530Z,28.75
2023-02-08T06:32:17.461Z,25.95
2023-02-08T06:33:22.597Z,22.52
2023-02-08T06:34:34.818Z,22.45
2023-02-08T06:35:38.777Z,25.60
2023-02-08T06:42:14.404Z,25.23
2023-02-08T06:43:18.818Z,24.88
2023-02-08T06:44:25.026Z,24.35
2023-02-08T06:45:29.324Z,25.92
2023-02-08T06:46:36.529Z,24.25
2023-02-08T06:47:46.888Z,24.95
2023-02-08T06:48:50.609Z,23.77
2023-02-08T06:50:04.475Z,22.00
2023-02-08T06:51:07.945Z,26.75
2023-02-08T06:52:15.828Z,25.08
2023-02-08T06:53:18.908Z,25.83
2023-02-08T06:54:24.247Z,22.75
2023-02-08T06:55:28.009Z,28.40
2023-02-08T06:56:32.407Z,24.42
2023-02-08T06:57:42.812Z,27.85
2023-02-08T06:58:48.030Z,25.65
2023-02-08T06:59:53.217Z,28.63
2023-02-08T07:00:57.790Z,25.48
2023-02-08T07:02:14.000Z,25.58
2023-02-08T07:03:22.951Z,27.27
2023-02-08T07:04:28.986Z,23.45
2023-02-08T07:05:49.507Z,24.52
2023-02-08T07:07:09.574Z,33.13
2023-02-08T07:08:14.678Z,27.40
2023-02-08T07:09:25.707Z,26.40
2023-02-08T07:10:39.696Z,24.67
2023-02-08T07:11:42.766Z,26.15
2023-02-08T07:12:51.081Z,28.33
2023-02-08T07:13:56.626Z,25.98
2023-02-08T07:15:00.744Z,29.70
2023-02-08T07:52:14.883Z,23.15
2023-02-08T07:53:19.025Z,23.20
2023-02-08T07:54:34.942Z,24.88
2023-02-08T07:55:39.588Z,24.95
2023-02-08T07:56:47.409Z,26.40
2023-02-08T07:57:51.783Z,26.23
2023-02-08T07:58:55.622Z,23.88
2023-02-08T08:00:01.020Z,24.45
2023-02-08T08:01:23.143Z,24.95
2023-02-08T08:02:27.246Z,24.05
2023-02-08T08:03:32.207Z,23.08
2023-02-08T08:04:38.624Z,22.63
2023-02-08T08:05:42.989Z,22.58
2023-02-08T08:06:56.883Z,22.83
2023-02-08T08:08:11.789Z,22.13
2023-02-08T08:09:18.040Z,25.50
2023-02-08T08:10:46.505Z,25.00
2023-02-08T08:11:55.960Z,26.15
2023-02-08T08:13:03.580Z,23.58
2023-02-08T08:14:06.451Z,22.85
2023-02-08T08:15:14.136Z,23.40
2023-02-08T08:16:22.937Z,25.13
2023-02-08T08:22:43.389Z,24.15
2023-02-08T08:23:50.967Z,23.27
2023-02-08T08:25:10.763Z,26.50
2023-02-08T08:26:17.960Z,22.80
2023-02-08T08:27:25.725Z,24.75
2023-02-08T08:28:28.714Z,26.17
2023-02-08T08:30:59.846Z,21.58
2023-02-08T08:32:04.855Z,24.42
2023-02-08T08:33:14.632Z,26.52
2023-02-08T08:34:24.544Z,24.45
2023-02-08T08:35:30.133Z,21.77
2023-02-08T08:36:35.775Z,27.92
2023-02-08T08:37:46.129Z,23.60
2023-02-08T08:38:51.173Z,24.35
2023-02-08T08:39:56.516Z,22.52
2023-02-08T08:41:00.755Z,25.92
2023-02-08T08:42:07.758Z,26.45
2023-02-08T08:43:10.977Z,21.85
2023-02-08T08:44:18.319Z,27.27
2023-02-08T08:45:27.914Z,24.65
2023-02-08T08:46:39.829Z,25.45
2023-02-08T08:47:46.143Z,24.77
2023-02-08T08:48:55.082Z,27.10
2023-02-08T08:50:00.498Z,22.30
2023-02-08T08:51:09.997Z,20.17
2023-02-08T08:52:19.779Z,23.92
2023-02-08T08:53:31.026Z,23.67
2023-02-08T08:54:36.584Z,23.25
2023-02-08T08:55:40.944Z,20.38
2023-02-08T08:56:46.454Z,24.27
2023-02-08T08:57:54.254Z,22.33
2023-02-08T08:58:59.939Z,21.88
2023-02-08T09:00:05.054Z,18.85
2023-02-08T09:01:12.622Z,21.05
2023-02-08T09:02:23.692Z,24.05
2023-02-08T09:03:33.698Z,22.73
2023-02-08T09:04:37.358Z,19.88
2023-02-08T09:05:51.782Z,21.25
2023-02-08T09:06:56.953Z,26.40
2023-02-08T09:08:05.747Z,23.27
2023-02-08T09:09:11.112Z,22.00
2023-02-08T09:10:17.303Z,21.17
2023-02-08T09:11:22.649Z,23.23
2023-02-08T09:12:28.842Z,21.90
2023-02-08T09:13:32.473Z,21.35
2023-02-08T09:14:48.708Z,20.52
2023-02-08T09:15:58.283Z,22.20
2023-02-08T09:17:02.437Z,27.05
2023-02-08T09:18:05.533Z,22.02
2023-02-08T09:19:13.621Z,27.27
2023-02-08T09:22:09.189Z,19.25
2023-02-08T09:23:13.842Z,19.80
2023-02-08T09:24:17.427Z,23.80
2023-02-08T09:25:21.201Z,20.85
2023-02-08T09:26:29.796Z,26.90
2023-02-08T09:27:35.701Z,20.02
2023-02-08T09:28:40.603Z,24.23
2023-02-08T09:29:46.383Z,23.45
2023-02-08T09:30:50.014Z,22.27
2023-02-08T09:31:55.835Z,19.73
2023-02-08T09:33:01.296Z,21.35
2023-02-08T09:34:09.350Z,21.75
2023-02-08T09:35:20.634Z,23.35
2023-02-08T09:36:29.863Z,20.23
2023-02-08T09:38:40.646Z,20.92
2023-02-08T09:39:46.632Z,19.45
2023-02-08T09:41:29.194Z,21.85
2023-02-08T09:42:40.925Z,21.58
2023-02-08T09:44:20.877Z,21.67
2023-02-08T09:45:58.119Z,22.35
2023-02-08T09:47:22.836Z,20.88
2023-02-08T09:48:37.898Z,20.33
2023-02-08T09:50:09.146Z,21.65
2023-02-08T09:51:36.839Z,23.90
2023-02-08T09:53:07.075Z,23.55
2023-02-08T09:54:23.292Z,19.75
2023-02-08T09:55:42.440Z,21.75
2023-02-08T09:56:54.333Z,23.77
2023-02-08T09:58:01.189Z,23.50
2023-02-08T09:59:10.901Z,22.65
2023-02-08T10:00:23.323Z,23.33
2023-02-08T10:01:38.676Z,27.00
2023-02-08T10:02:56.525Z,22.58
2023-02-08T10:04:16.256Z,27.05
2023-02-08T10:05:26.109Z,22.80
2023-02-08T10:06:32.982Z,26.42
2023-02-08T10:07:42.170Z,21.38
2023-02-08T10:08:54.980Z,22.27
2023-02-08T10:10:03.110Z,20.20
2023-02-08T10:11:36.736Z,20.23
2023-02-08T10:13:06.922Z,23.33
2023-02-08T10:14:35.572Z,20.33
2023-02-08T10:15:53.456Z,24.77
2023-02-08T10:17:33.993Z,19.92
2023-02-08T10:18:57.104Z,21.83
2023-02-08T10:20:22.828Z,20.83
2023-02-08T10:21:44.277Z,24.55
2023-02-08T10:23:21.126Z,18.20
2023-02-08T10:25:06.727Z,21.35
2023-02-08T10:26:32.737Z,20.67
2023-02-08T10:28:08.014Z,19.98
2023-02-08T10:29:44.649Z,20.35
2023-02-08T10:30:59.840Z,23.17
2023-02-08T10:32:38.934Z,24.35
2023-02-08T10:34:06.182Z,19.58
2023-02-08T10:35:16.468Z,21.35
2023-02-08T10:36:24.901Z,21.90
2023-02-08T10:37:39.525Z,22.83
2023-02-08T10:38:53.951Z,22.33
2023-02-08T10:40:03.693Z,21.67
2023-02-08T10:41:08.961Z,22.48
2023-02-08T10:42:21.085Z,21.50
2023-02-08T10:43:42.424Z,20.25
2023-02-08T10:44:49.622Z,20.15
2023-02-08T10:46:06.016Z,28.70
2023-02-08T10:47:24.422Z,20.42
2023-02-08T10:48:37.609Z,26.75
2023-02-08T10:50:02.487Z,20.83
2023-02-08T10:51:17.627Z,21.75
2023-02-08T10:52:23.702Z,20.02
2023-02-08T10:53:40.077Z,21.20
2023-02-08T10:54:50.300Z,20.98
2023-02-08T10:55:54.787Z,19.70
2023-02-08T10:57:28.755Z,20.15
2023-02-08T10:58:39.929Z,20.10
2023-02-08T10:59:57.470Z,18.98
2023-02-08T11:01:07.913Z,20.73
2023-02-08T11:02:32.522Z,19.10
2023-02-08T11:03:42.041Z,20.95
2023-02-08T11:06:32.690Z,22.20
2023-02-08T11:07:45.495Z,22.23
2023-02-08T11:09:01.837Z,21.33
2023-02-08T11:10:20.783Z,21.92
2023-02-08T11:11:27.788Z,20.27
2023-02-08T11:12:36.811Z,21.42
2023-02-08T11:13:42.960Z,22.92
2023-02-08T11:15:02.625Z,19.25
2023-02-08T11:16:10.398Z,21.63
2023-02-08T11:17:32.228Z,21.98
2023-02-08T11:19:49.143Z,22.42
2023-02-08T21:29:45.907Z,21.17
2023-02-08T21:31:06.976Z,22.05
2023-02-08T21:32:11.391Z,18.65
2023-02-08T21:33:16.312Z,19.05
2023-02-08T21:34:33.802Z,20.08
2023-02-08T21:36:59.157Z,19.08
2023-02-08T21:38:08.943Z,20.33
2023-02-08T21:39:20.855Z,19.55
2023-02-08T21:40:27.613Z,20.63
2023-02-08T21:41:37.901Z,18.90
2023-02-08T21:44:18.968Z,17.75
2023-02-08T21:45:22.805Z,19.63
2023-02-08T21:46:28.838Z,19.88
2023-02-08T21:47:43.751Z,21.30
2023-02-08T21:49:29.188Z,18.40
2023-02-08T21:50:53.631Z,21.13
2023-02-08T21:52:22.946Z,19.08
2023-02-08T21:53:51.019Z,23.33
